createdAt,value
2022-09-10T00:00:20.000Z,23.2
2022-09-10T00:01:30.000Z,23.2
2022-09-10T00:02:39.000Z,23.2
2022-09-10T00:03:48.000Z,23.2
2022-09-10T00:04:58.000Z,23.2
2022-09-10T00:06:08.000Z,23.2
2022-09-10T00:07:18.000Z,23.2
2022-09-10T00:08:28.000Z,23.2
2022-09-10T00:09:39.000Z,23.2
2022-09-10T00:10:49.000Z,23.2
2022-09-10T00:11:59.000Z,23.2
2022-09-10T00:13:09.000Z,23.2
2022-09-10T00:14:19.000Z,23.2
2022-09-10T00:15:29.000Z,23.2
2022-09-10T00:16:39.000Z,23.2
2022-09-10T00:17:49.000Z,23.2
2022-09-10T00:18:58.000Z,23.2
2022-09-10T00:20:09.000Z,23.2
2022-09-10T00:21:19.000Z,23.2
2022-09-10T00:22:29.000Z,23.2
2022-09-10T00:23:39.000Z,23.1
2022-09-10T00:24:49.000Z,23.1
2022-09-10T00:25:59.000Z,23.2
2022-09-10T00:27:08.000Z,23.2
2022-09-10T00:28:17.000Z,23.2
2022-09-10T00:29:27.000Z,23.2
2022-09-10T00:30:36.000Z,23.2
2022-09-10T00:31:46.000Z,23.2
2022-09-10T00:32:56.000Z,23.1
2022-09-10T00:34:06.000Z,23.1
2022-09-10T00:35:16.000Z,23.2
2022-09-10T00:36:26.000Z,23.2
2022-09-10T00:37:36.000Z,23.2
2022-09-10T00:38:47.000Z,23.1
2022-09-10T00:39:57.000Z,23.2
2022-09-10T00:41:07.000Z,23.1
2022-09-10T00:42:17.000Z,23.1
2022-09-10T00:43:27.000Z,23.1
2022-09-10T00:44:37.000Z,23.1
2022-09-10T00:45:46.000Z,23.1
2022-09-10T00:46:56.000Z,23.1
2022-09-10T00:48:06.000Z,23.1
2022-09-10T00:49:17.000Z,23.1
2022-09-10T00:50:27.000Z,23.1
2022-09-10T00:51:37.000Z,23.1
2022-09-10T00:52:47.000Z,23.1
2022-09-10T00:53:56.000Z,23.1
2022-09-10T00:55:05.000Z,23.1
2022-09-10T00:56:15.000Z,23.1
2022-09-10T00:57:25.000Z,23.1
2022-09-10T00:58:36.000Z,23.1
2022-09-10T00:59:46.000Z,23.1
2022-09-10T01:00:56.000Z,23.1
2022-09-10T01:02:06.000Z,23.1
2022-09-10T01:03:16.000Z,23.1
2022-09-10T01:04:26.000Z,23.1
2022-09-10T01:05:36.000Z,23.1
2022-09-10T01:06:46.000Z,23.1
2022-09-10T01:07:56.000Z,23.1
2022-09-10T01:09:07.000Z,23.1
2022-09-10T01:10:16.000Z,23.1
2022-09-10T01:11:26.000Z,23.1
2022-09-10T01:12:36.000Z,23.1
2022-09-10T01:13:46.000Z,23.1
2022-09-10T01:14:56.000Z,23.1
2022-09-10T01:16:06.000Z,23.1
2022-09-10T01:17:16.000Z,23.1
2022-09-10T01:18:26.000Z,23.1
2022-09-10T01:19:35.000Z,23.1
2022-09-10T01:20:44.000Z,23.1
2022-09-10T01:21:53.000Z,23.1
2022-09-10T01:23:03.000Z,23.1
2022-09-10T01:24:13.000Z,23.1
2022-09-10T01:25:23.000Z,23.1
2022-09-10T01:26:33.000Z,23.1
2022-09-10T01:27:44.000Z,23.1
2022-09-10T01:28:54.000Z,23.1
2022-09-10T01:30:04.000Z,23.1
2022-09-10T01:31:14.000Z,23.1
2022-09-10T01:32:24.000Z,23.1
2022-09-10T01:33:34.000Z,23.1
2022-09-10T01:34:44.000Z,23.1
2022-09-10T01:35:54.000Z,23.1
2022-09-10T01:37:04.000Z,23.1
2022-09-10T01:38:15.000Z,23.1
2022-09-10T01:39:24.000Z,23.1
2022-09-10T01:40:34.000Z,23.1
2022-09-10T01:41:44.000Z,23.1
2022-09-10T01:42:54.000Z,23.1
2022-09-10T01:44:04.000Z,23.1
2022-09-10T01:45:13.000Z,23.1
2022-09-10T01:46:22.000Z,23.1
2022-09-10T01:47:32.000Z,23.1
2022-09-10T01:48:41.000Z,23.1
2022-09-10T01:49:51.000Z,23.1
2022-09-10T01:51:01.000Z,23.1
2022-09-10T01:52:11.000Z,23.1
2022-09-10T01:53:21.000Z,23.1
2022-09-10T01:54:31.000Z,23.1
2022-09-10T01:55:41.000Z,23.1
2022-09-10T01:56:52.000Z,23.1
2022-09-10T01:58:02.000Z,23.1
2022-09-10T01:59:12.000Z,23.1
2022-09-10T02:00:22.000Z,23.1
2022-09-10T02:01:32.000Z,23.1
2022-09-10T02:02:42.000Z,23.1
2022-09-10T02:03:51.000Z,23.1
2022-09-10T02:05:01.000Z,23.1
2022-09-10T02:06:12.000Z,23.1
2022-09-10T02:07:22.000Z,23.1
2022-09-10T02:08:32.000Z,23.1
2022-09-10T02:09:42.000Z,23.1
2022-09-10T02:10:52.000Z,23.1
2022-09-10T02:12:01.000Z,23.1
2022-09-10T02:13:10.000Z,23.1
2022-09-10T02:14:19.000Z,23.1
2022-09-10T02:15:30.000Z,23.1
2022-09-10T02:16:39.000Z,23.1
2022-09-10T02:17:49.000Z,23.1
2022-09-10T02:18:59.000Z,23.1
2022-09-10T02:20:09.000Z,23.1
2022-09-10T02:21:19.000Z,23.1
2022-09-10T02:22:29.000Z,23.1
2022-09-10T02:23:39.000Z,23.1
2022-09-10T02:24:49.000Z,23.1
2022-09-10T02:26:00.000Z,23.1
2022-09-10T02:27:10.000Z,23.1
2022-09-10T02:28:20.000Z,23.1
2022-09-10T02:29:30.000Z,23.1
2022-09-10T02:30:40.000Z,23.1
2022-09-10T02:31:49.000Z,23.1
2022-09-10T02:32:59.000Z,23.1
2022-09-10T02:34:09.000Z,23.1
2022-09-10T02:35:20.000Z,23.1
2022-09-10T02:36:30.000Z,23.1
2022-09-10T02:37:40.000Z,23.1
2022-09-10T02:38:49.000Z,23.1
2022-09-10T02:39:58.000Z,23.1
2022-09-10T02:41:08.000Z,23.1
2022-09-10T02:42:17.000Z,23.1
2022-09-10T02:43:26.000Z,23.1
2022-09-10T02:44:37.000Z,23.1
2022-09-10T02:45:47.000Z,23.1
2022-09-10T02:46:57.000Z,23.1
2022-09-10T02:48:07.000Z,23.1
2022-09-10T02:49:17.000Z,23.1
2022-09-10T02:50:27.000Z,23.1
2022-09-10T02:51:37.000Z,23.1
2022-09-10T02:52:47.000Z,23.1
2022-09-10T02:53:57.000Z,23.1
2022-09-10T02:55:08.000Z,23.1
2022-09-10T02:56:18.000Z,23.1
2022-09-10T02:57:28.000Z,23.1
2022-09-10T02:58:37.000Z,23.1
2022-09-10T02:59:47.000Z,23.1
2022-09-10T03:00:57.000Z,23.1
2022-09-10T03:02:07.000Z,23.1
2022-09-10T03:03:17.000Z,23.1
2022-09-10T03:04:28.000Z,23.1
2022-09-10T03:05:38.000Z,23.1
2022-09-10T03:06:47.000Z,23.1
2022-09-10T03:07:56.000Z,23.1
2022-09-10T03:09:06.000Z,23.1
2022-09-10T03:10:15.000Z,23.1
2022-09-10T03:11:24.000Z,23.1
2022-09-10T03:12:34.000Z,23.1
2022-09-10T03:13:45.000Z,23.1
2022-09-10T03:14:55.000Z,23
2022-09-10T03:16:05.000Z,23.1
2022-09-10T03:17:15.000Z,23.1
2022-09-10T03:18:25.000Z,23
2022-09-10T03:19:35.000Z,23.1
2022-09-10T03:20:45.000Z,23.1
2022-09-10T03:21:55.000Z,23
2022-09-10T03:23:05.000Z,23.1
2022-09-10T03:24:16.000Z,23.1
2022-09-10T03:25:26.000Z,23.1
2022-09-10T03:26:35.000Z,23
2022-09-10T03:27:45.000Z,23.1
2022-09-10T03:28:55.000Z,23
2022-09-10T03:30:05.000Z,23.1
2022-09-10T03:31:15.000Z,23
2022-09-10T03:32:25.000Z,23.1
2022-09-10T03:33:36.000Z,23.1
2022-09-10T03:34:45.000Z,23
2022-09-10T03:35:54.000Z,23
2022-09-10T03:37:04.000Z,23
2022-09-10T03:38:13.000Z,23.1
2022-09-10T03:39:22.000Z,23.1
2022-09-10T03:40:32.000Z,23
2022-09-10T03:41:42.000Z,23
2022-09-10T03:42:53.000Z,23.1
2022-09-10T03:44:03.000Z,23
2022-09-10T03:45:13.000Z,23
2022-09-10T03:46:23.000Z,23
2022-09-10T03:47:33.000Z,23.1
2022-09-10T03:48:43.000Z,23
2022-09-10T03:49:53.000Z,23
2022-09-10T03:51:03.000Z,23
2022-09-10T03:52:13.000Z,23
2022-09-10T03:53:24.000Z,23.1
2022-09-10T03:55:43.000Z,23
2022-09-10T03:56:53.000Z,23
2022-09-10T03:58:03.000Z,23
2022-09-10T03:59:13.000Z,23
2022-09-10T04:01:33.000Z,23
2022-09-10T04:02:43.000Z,23
2022-09-10T04:05:02.000Z,23
2022-09-10T04:06:12.000Z,23
2022-09-10T04:08:32.000Z,23
2022-09-10T04:09:42.000Z,23
2022-09-10T04:10:52.000Z,23
2022-09-10T04:12:03.000Z,23
2022-09-10T04:13:13.000Z,23
2022-09-10T04:14:23.000Z,23
2022-09-10T04:15:33.000Z,23
2022-09-10T04:16:43.000Z,23
2022-09-10T04:17:53.000Z,23
2022-09-10T04:19:02.000Z,23
2022-09-10T04:20:12.000Z,23
2022-09-10T04:21:22.000Z,23
2022-09-10T04:22:33.000Z,23
2022-09-10T04:23:43.000Z,23
2022-09-10T04:24:53.000Z,23
2022-09-10T04:26:03.000Z,23
2022-09-10T04:27:13.000Z,23
2022-09-10T04:28:23.000Z,23
2022-09-10T04:29:32.000Z,23
2022-09-10T04:30:41.000Z,23
2022-09-10T04:31:51.000Z,23
2022-09-10T04:33:00.000Z,23
2022-09-10T04:34:09.000Z,23
2022-09-10T04:35:18.000Z,23
2022-09-10T04:36:28.000Z,23
2022-09-10T04:37:38.000Z,23
2022-09-10T04:38:48.000Z,23
2022-09-10T04:39:58.000Z,23
2022-09-10T04:41:09.000Z,23
2022-09-10T04:42:19.000Z,23
2022-09-10T04:43:29.000Z,23
2022-09-10T04:44:39.000Z,23
2022-09-10T04:45:49.000Z,23
2022-09-10T04:46:59.000Z,23
2022-09-10T04:48:09.000Z,23
2022-09-10T04:49:19.000Z,23
2022-09-10T04:50:28.000Z,23
2022-09-10T04:51:39.000Z,23
2022-09-10T04:52:49.000Z,23
2022-09-10T04:53:59.000Z,23
2022-09-10T04:55:09.000Z,23
2022-09-10T04:56:19.000Z,23
2022-09-10T04:57:29.000Z,23
2022-09-10T04:58:38.000Z,23
2022-09-10T04:59:47.000Z,23
2022-09-10T05:00:58.000Z,23
2022-09-10T05:02:07.000Z,23
2022-09-10T05:03:16.000Z,23
2022-09-10T05:05:36.000Z,23
2022-09-10T05:06:46.000Z,23
2022-09-10T05:07:56.000Z,23
2022-09-10T05:09:06.000Z,23
2022-09-10T05:10:17.000Z,23
2022-09-10T05:11:27.000Z,23
2022-09-10T05:12:37.000Z,23
2022-09-10T05:13:47.000Z,23
2022-09-10T05:14:57.000Z,23
2022-09-10T05:16:07.000Z,23
2022-09-10T05:17:17.000Z,23
2022-09-10T05:18:26.000Z,23
2022-09-10T05:19:36.000Z,23
2022-09-10T05:20:47.000Z,23
2022-09-10T05:21:57.000Z,23
2022-09-10T05:23:07.000Z,23
2022-09-10T05:24:17.000Z,23
2022-09-10T05:25:27.000Z,23
2022-09-10T05:26:37.000Z,23
2022-09-10T05:27:46.000Z,23
2022-09-10T05:28:55.000Z,23
2022-09-10T05:30:05.000Z,23
2022-09-10T05:31:14.000Z,23
2022-09-10T05:32:24.000Z,23
2022-09-10T05:33:34.000Z,23
2022-09-10T05:34:44.000Z,23
2022-09-10T05:35:54.000Z,23
2022-09-10T05:37:04.000Z,23
2022-09-10T05:38:14.000Z,23
2022-09-10T05:39:25.000Z,23
2022-09-10T05:40:35.000Z,23
2022-09-10T05:41:45.000Z,23
2022-09-10T05:42:55.000Z,23
2022-09-10T05:44:05.000Z,23
2022-09-10T05:45:15.000Z,23
2022-09-10T05:46:24.000Z,23
2022-09-10T05:47:34.000Z,23
2022-09-10T05:48:44.000Z,23
2022-09-10T05:49:55.000Z,23
2022-09-10T05:51:05.000Z,23
2022-09-10T05:52:15.000Z,23
2022-09-10T05:53:25.000Z,23
2022-09-10T05:54:34.000Z,23
2022-09-10T05:55:43.000Z,23
2022-09-10T05:56:53.000Z,23
2022-09-10T05:58:02.000Z,23
2022-09-10T05:59:12.000Z,23
2022-09-10T06:00:22.000Z,23
2022-09-10T06:01:32.000Z,23
2022-09-10T06:02:42.000Z,23
2022-09-10T06:03:52.000Z,23
2022-09-10T06:05:02.000Z,23
2022-09-10T06:06:12.000Z,23
2022-09-10T06:07:22.000Z,23
2022-09-10T06:08:33.000Z,23
2022-09-10T06:09:43.000Z,23
2022-09-10T06:10:53.000Z,23
2022-09-10T06:12:03.000Z,23
2022-09-10T06:13:13.000Z,23
2022-09-10T06:14:22.000Z,23
2022-09-10T06:15:32.000Z,23
2022-09-10T06:16:42.000Z,23
2022-09-10T06:17:52.000Z,23
2022-09-10T06:19:03.000Z,23
2022-09-10T06:20:13.000Z,23
2022-09-10T06:21:23.000Z,23
2022-09-10T06:22:32.000Z,23
2022-09-10T06:24:51.000Z,23
2022-09-10T06:26:00.000Z,23
2022-09-10T06:27:10.000Z,23
2022-09-10T06:28:21.000Z,23
2022-09-10T06:29:31.000Z,23
2022-09-10T06:30:41.000Z,23
2022-09-10T06:31:51.000Z,23
2022-09-10T06:33:01.000Z,23
2022-09-10T06:34:11.000Z,23
2022-09-10T06:35:21.000Z,23
2022-09-10T06:36:31.000Z,23
2022-09-10T06:37:42.000Z,23
2022-09-10T06:38:52.000Z,23
2022-09-10T06:40:02.000Z,23
2022-09-10T06:41:11.000Z,23
2022-09-10T06:42:21.000Z,23
2022-09-10T06:43:31.000Z,23
2022-09-10T06:44:41.000Z,23
2022-09-10T06:45:51.000Z,23
2022-09-10T06:47:01.000Z,23
2022-09-10T06:48:11.000Z,23
2022-09-10T06:49:20.000Z,23
2022-09-10T06:50:29.000Z,23
2022-09-10T06:51:38.000Z,23
2022-09-10T06:52:48.000Z,23
2022-09-10T06:55:07.000Z,23
2022-09-10T06:56:17.000Z,23
2022-09-10T06:57:27.000Z,23
2022-09-10T06:58:37.000Z,23
2022-09-10T06:59:47.000Z,23
2022-09-10T07:00:57.000Z,23
2022-09-10T07:02:07.000Z,23
2022-09-10T07:03:17.000Z,23
2022-09-10T07:04:27.000Z,23
2022-09-10T07:05:37.000Z,23
2022-09-10T07:06:48.000Z,23
2022-09-10T07:07:58.000Z,23
2022-09-10T07:09:08.000Z,23
2022-09-10T07:10:18.000Z,23
2022-09-10T07:11:27.000Z,23
2022-09-10T07:12:37.000Z,23
2022-09-10T07:13:47.000Z,23
2022-09-10T07:14:57.000Z,23
2022-09-10T07:16:07.000Z,23
2022-09-10T07:17:16.000Z,23
2022-09-10T07:18:25.000Z,23
2022-09-10T07:19:34.000Z,23
2022-09-10T07:20:44.000Z,23
2022-09-10T07:21:54.000Z,23
2022-09-10T07:23:04.000Z,23
2022-09-10T07:24:14.000Z,23
2022-09-10T07:25:25.000Z,23
2022-09-10T07:26:35.000Z,23
2022-09-10T07:27:45.000Z,23
2022-09-10T07:28:55.000Z,23
2022-09-10T07:30:05.000Z,23
2022-09-10T07:31:15.000Z,23
2022-09-10T07:32:25.000Z,23
2022-09-10T07:33:35.000Z,23
2022-09-10T07:34:44.000Z,23
2022-09-10T07:35:55.000Z,23
2022-09-10T07:38:15.000Z,23
2022-09-10T07:39:25.000Z,23
2022-09-10T07:40:35.000Z,23
2022-09-10T07:41:45.000Z,23
2022-09-10T07:42:54.000Z,23
2022-09-10T07:44:03.000Z,23
2022-09-10T07:45:14.000Z,23
2022-09-10T07:46:24.000Z,23
2022-09-10T07:47:34.000Z,23
2022-09-10T07:48:44.000Z,23
2022-09-10T07:49:54.000Z,23
2022-09-10T07:51:04.000Z,23
2022-09-10T07:52:14.000Z,23
2022-09-10T07:53:24.000Z,23
2022-09-10T07:54:34.000Z,23
2022-09-10T07:55:45.000Z,23
2022-09-10T07:56:55.000Z,23
2022-09-10T07:58:05.000Z,23
2022-09-10T07:59:14.000Z,23
2022-09-10T08:00:24.000Z,23
2022-09-10T08:01:34.000Z,23
2022-09-10T08:02:44.000Z,23
2022-09-10T08:03:54.000Z,23
2022-09-10T08:05:05.000Z,23
2022-09-10T08:06:15.000Z,23
2022-09-10T08:07:24.000Z,23
2022-09-10T08:08:34.000Z,23
2022-09-10T08:09:43.000Z,23
2022-09-10T08:10:52.000Z,23
2022-09-10T08:12:01.000Z,23
2022-09-10T08:13:10.000Z,23.1
2022-09-10T08:14:21.000Z,23.1
2022-09-10T08:15:31.000Z,23.1
2022-09-10T08:16:41.000Z,23.1
2022-09-10T08:17:51.000Z,23.1
2022-09-10T08:19:01.000Z,23.1
2022-09-10T08:20:11.000Z,23.1
2022-09-10T08:21:21.000Z,23.1
2022-09-10T08:22:31.000Z,23.1
2022-09-10T08:23:42.000Z,23.1
2022-09-10T08:24:52.000Z,23.1
2022-09-10T08:26:02.000Z,23.1
2022-09-10T08:27:12.000Z,23.1
2022-09-10T08:28:21.000Z,23.1
2022-09-10T08:29:31.000Z,23.1
2022-09-10T08:30:41.000Z,23.1
2022-09-10T08:31:51.000Z,23.1
2022-09-10T08:33:01.000Z,23.1
2022-09-10T08:34:12.000Z,23.1
2022-09-10T08:35:22.000Z,23.1
2022-09-10T08:36:31.000Z,23.1
2022-09-10T08:37:40.000Z,23.1
2022-09-10T08:38:49.000Z,23.1
2022-09-10T08:39:58.000Z,23.1
2022-09-10T08:41:08.000Z,23.1
2022-09-10T08:42:18.000Z,23.1
2022-09-10T08:43:29.000Z,23.1
2022-09-10T08:44:39.000Z,23.1
2022-09-10T08:45:49.000Z,23.1
2022-09-10T08:46:59.000Z,23.1
2022-09-10T08:48:09.000Z,23.1
2022-09-10T08:49:19.000Z,23.1
2022-09-10T08:50:29.000Z,23.1
2022-09-10T08:51:39.000Z,23.1
2022-09-10T08:52:50.000Z,23.1
2022-09-10T08:54:00.000Z,23.1
2022-09-10T08:55:09.000Z,23.1
2022-09-10T08:56:19.000Z,23.1
2022-09-10T08:57:29.000Z,23.1
2022-09-10T08:58:39.000Z,23.1
2022-09-10T08:59:49.000Z,23.1
2022-09-10T09:00:59.000Z,23.1
2022-09-10T09:02:09.000Z,23.1
2022-09-10T09:03:20.000Z,23.1
2022-09-10T09:04:29.000Z,23.1
2022-09-10T09:05:38.000Z,23.1
2022-09-10T09:06:47.000Z,23.1
2022-09-10T09:07:57.000Z,23.1
2022-09-10T09:09:06.000Z,23.1
2022-09-10T09:10:16.000Z,23.1
2022-09-10T09:11:26.000Z,23.1
2022-09-10T09:12:37.000Z,23.1
2022-09-10T09:13:47.000Z,23.1
2022-09-10T09:14:57.000Z,23.1
2022-09-10T09:16:07.000Z,23.1
2022-09-10T09:17:17.000Z,23.1
2022-09-10T09:18:27.000Z,23.1
2022-09-10T09:19:37.000Z,23.1
2022-09-10T09:20:47.000Z,23.1
2022-09-10T09:21:58.000Z,23.1
2022-09-10T09:23:08.000Z,23.1
2022-09-10T09:24:17.000Z,23.1
2022-09-10T09:25:27.000Z,23.1
2022-09-10T09:26:37.000Z,23.1
2022-09-10T09:27:47.000Z,23.1
2022-09-10T09:28:57.000Z,23.1
2022-09-10T09:30:07.000Z,23.1
2022-09-10T09:31:16.000Z,23.1
2022-09-10T09:32:26.000Z,23.1
2022-09-10T09:33:36.000Z,23.1
2022-09-10T09:34:46.000Z,23.1
2022-09-10T09:35:56.000Z,23.2
2022-09-10T09:37:06.000Z,23.1
2022-09-10T09:38:16.000Z,23.2
2022-09-10T09:39:26.000Z,23.2
2022-09-10T09:40:36.000Z,23.1
2022-09-10T09:41:47.000Z,23.2
2022-09-10T09:42:57.000Z,23.2
2022-09-10T09:44:07.000Z,23.2
2022-09-10T09:45:17.000Z,23.2
2022-09-10T09:46:27.000Z,23.2
2022-09-10T09:47:36.000Z,23.2
2022-09-10T09:48:46.000Z,23.2
2022-09-10T09:49:56.000Z,23.2
2022-09-10T09:51:06.000Z,23.2
2022-09-10T09:52:17.000Z,23.2
2022-09-10T09:53:27.000Z,23.2
2022-09-10T09:54:37.000Z,23.2
2022-09-10T09:55:46.000Z,23.2
2022-09-10T09:56:55.000Z,23.2
2022-09-10T09:58:05.000Z,23.2
2022-09-10T09:59:15.000Z,23.2
2022-09-10T10:00:25.000Z,23.2
2022-09-10T10:02:46.000Z,23.2
2022-09-10T10:03:56.000Z,23.2
2022-09-10T10:05:06.000Z,23.2
2022-09-10T10:06:16.000Z,23.2
2022-09-10T10:07:26.000Z,23.2
2022-09-10T10:08:36.000Z,23.2
2022-09-10T10:09:46.000Z,23.2
2022-09-10T10:10:56.000Z,23.2
2022-09-10T10:12:06.000Z,23.2
2022-09-10T10:13:16.000Z,23.2
2022-09-10T10:14:26.000Z,23.2
2022-09-10T10:15:36.000Z,23.2
2022-09-10T10:16:46.000Z,23.2
2022-09-10T10:17:56.000Z,23.2
2022-09-10T10:19:06.000Z,23.2
2022-09-10T10:20:15.000Z,23.2
2022-09-10T10:21:25.000Z,23.2
2022-09-10T10:22:34.000Z,23.2
2022-09-10T10:23:43.000Z,23.2
2022-09-10T10:24:52.000Z,23.2
2022-09-10T10:26:02.000Z,23.2
2022-09-10T10:27:12.000Z,23.2
2022-09-10T10:28:22.000Z,23.2
2022-09-10T10:29:32.000Z,23.2
2022-09-10T10:30:43.000Z,23.2
2022-09-10T10:31:53.000Z,23.3
2022-09-10T10:33:03.000Z,23.2
2022-09-10T10:34:13.000Z,23.3
2022-09-10T10:35:23.000Z,23.3
2022-09-10T10:36:33.000Z,23.3
2022-09-10T10:37:43.000Z,23.3
2022-09-10T10:38:53.000Z,23.3
2022-09-10T10:40:03.000Z,23.3
2022-09-10T10:41:13.000Z,23.3
2022-09-10T10:42:23.000Z,23.3
2022-09-10T10:43:33.000Z,23.3
2022-09-10T10:44:43.000Z,23.3
2022-09-10T10:45:53.000Z,23.3
2022-09-10T10:47:03.000Z,23.3
2022-09-10T10:48:12.000Z,23.3
2022-09-10T10:49:22.000Z,23.3
2022-09-10T10:50:31.000Z,23.3
2022-09-10T10:51:40.000Z,23.3
2022-09-10T10:52:49.000Z,23.4
2022-09-10T10:53:58.000Z,23.4
2022-09-10T10:55:08.000Z,23.4
2022-09-10T10:56:18.000Z,23.4
2022-09-10T10:57:28.000Z,23.4
2022-09-10T10:58:39.000Z,23.4
2022-09-10T10:59:49.000Z,23.4
2022-09-10T11:00:59.000Z,23.4
2022-09-10T11:02:09.000Z,23.4
2022-09-10T11:03:19.000Z,23.4
2022-09-10T11:04:29.000Z,23.4
2022-09-10T11:05:39.000Z,23.4
2022-09-10T11:06:49.000Z,23.4
2022-09-10T11:07:59.000Z,23.5
2022-09-10T11:09:09.000Z,23.5
2022-09-10T11:10:19.000Z,23.5
2022-09-10T11:11:29.000Z,23.5
2022-09-10T11:12:39.000Z,23.5
2022-09-10T11:13:49.000Z,23.5
2022-09-10T11:14:59.000Z,23.5
2022-09-10T11:16:09.000Z,23.5
2022-09-10T11:17:18.000Z,23.5
2022-09-10T11:18:28.000Z,23.5
2022-09-10T11:19:38.000Z,23.5
2022-09-10T11:20:48.000Z,23.5
2022-09-10T11:21:58.000Z,23.5
2022-09-10T11:23:08.000Z,23.5
2022-09-10T11:24:18.000Z,23.5
2022-09-10T11:25:28.000Z,23.5
2022-09-10T11:26:38.000Z,23.6
2022-09-10T11:27:48.000Z,23.6
2022-09-10T11:28:59.000Z,23.6
2022-09-10T11:30:09.000Z,23.6
2022-09-10T11:31:19.000Z,23.6
2022-09-10T11:32:29.000Z,23.6
2022-09-10T11:33:38.000Z,23.6
2022-09-10T11:34:48.000Z,23.6
2022-09-10T11:35:58.000Z,23.6
2022-09-10T11:37:08.000Z,23.6
2022-09-10T11:38:19.000Z,23.6
2022-09-10T11:39:29.000Z,23.6
2022-09-10T11:40:39.000Z,23.6
2022-09-10T11:41:48.000Z,23.6
2022-09-10T11:42:57.000Z,23.6
2022-09-10T11:44:06.000Z,23.6
2022-09-10T11:45:15.000Z,23.7
2022-09-10T11:46:25.000Z,23.7
2022-09-10T11:47:35.000Z,23.7
2022-09-10T11:48:44.000Z,23.7
2022-09-10T11:49:54.000Z,23.7
2022-09-10T11:51:04.000Z,23.7
2022-09-10T11:52:14.000Z,23.7
2022-09-10T11:53:24.000Z,23.7
2022-09-10T11:54:34.000Z,23.7
2022-09-10T11:55:44.000Z,23.7
2022-09-10T11:56:55.000Z,23.7
2022-09-10T11:58:05.000Z,23.7
2022-09-10T11:59:15.000Z,23.7
2022-09-10T12:00:25.000Z,23.7
2022-09-10T12:01:35.000Z,23.7
2022-09-10T12:02:45.000Z,23.7
2022-09-10T12:03:54.000Z,23.7
2022-09-10T12:05:04.000Z,23.7
2022-09-10T12:06:14.000Z,23.7
2022-09-10T12:07:25.000Z,23.7
2022-09-10T12:08:35.000Z,23.7
2022-09-10T12:09:45.000Z,23.7
2022-09-10T12:10:55.000Z,23.7
2022-09-10T12:12:04.000Z,23.7
2022-09-10T12:13:13.000Z,23.7
2022-09-10T12:14:23.000Z,23.7
2022-09-10T12:15:33.000Z,23.7
2022-09-10T12:16:43.000Z,23.7
2022-09-10T12:17:52.000Z,23.7
2022-09-10T12:19:02.000Z,23.7
2022-09-10T12:20:12.000Z,23.7
2022-09-10T12:21:22.000Z,23.7
2022-09-10T12:22:32.000Z,23.7
2022-09-10T12:23:42.000Z,23.7
2022-09-10T12:24:52.000Z,23.7
2022-09-10T12:26:03.000Z,23.7
2022-09-10T12:27:13.000Z,23.7
2022-09-10T12:28:23.000Z,23.7
2022-09-10T12:29:33.363Z,23.7
2022-09-10T12:30:43.000Z,23.7
2022-09-10T12:31:53.000Z,23.7
2022-09-10T12:33:02.000Z,23.7
2022-09-10T12:34:12.000Z,23.7
2022-09-10T12:35:22.000Z,23.7
2022-09-10T12:36:33.000Z,23.7
2022-09-10T12:37:43.000Z,23.7
2022-09-10T12:38:53.000Z,23.7
2022-09-10T12:40:03.000Z,23.7
2022-09-10T12:41:12.000Z,23.7
2022-09-10T12:42:21.000Z,23.7
2022-09-10T12:43:30.000Z,23.8
2022-09-10T12:44:39.000Z,23.8
2022-09-10T12:45:50.000Z,23.7
2022-09-10T12:47:00.000Z,23.8
2022-09-10T12:48:10.000Z,23.8
2022-09-10T12:49:20.000Z,23.8
2022-09-10T12:50:30.000Z,23.8
2022-09-10T12:51:40.000Z,23.8
2022-09-10T12:52:50.000Z,23.8
2022-09-10T12:54:00.000Z,23.8
2022-09-10T12:55:11.000Z,23.8
2022-09-10T12:56:21.000Z,23.8
2022-09-10T12:57:31.000Z,23.8
2022-09-10T12:58:41.000Z,23.8
2022-09-10T12:59:50.000Z,23.8
2022-09-10T13:01:00.000Z,23.8
2022-09-10T13:02:10.000Z,23.8
2022-09-10T13:03:20.000Z,23.8
2022-09-10T13:04:30.000Z,23.8
2022-09-10T13:05:41.000Z,23.8
2022-09-10T13:06:51.000Z,23.8
2022-09-10T13:08:00.000Z,23.8
2022-09-10T13:09:10.000Z,23.8
2022-09-10T13:10:19.000Z,23.8
2022-09-10T13:11:28.000Z,23.8
2022-09-10T13:12:37.000Z,23.8
2022-09-10T13:13:47.000Z,23.8
2022-09-10T13:14:58.000Z,23.8
2022-09-10T13:16:08.000Z,23.8
2022-09-10T13:17:18.000Z,23.8
2022-09-10T13:18:28.000Z,23.8
2022-09-10T13:19:38.000Z,23.8
2022-09-10T13:20:48.000Z,23.8
2022-09-10T13:21:58.000Z,23.8
2022-09-10T13:23:08.000Z,23.8
2022-09-10T13:24:19.000Z,23.8
2022-09-10T13:25:29.000Z,23.8
2022-09-10T13:26:39.000Z,23.8
2022-09-10T13:27:48.000Z,23.8
2022-09-10T13:28:58.000Z,23.8
2022-09-10T13:30:08.000Z,23.8
2022-09-10T13:31:18.000Z,23.8
2022-09-10T13:32:28.000Z,23.8
2022-09-10T13:33:38.000Z,23.8
2022-09-10T13:34:49.000Z,23.8
2022-09-10T13:35:58.000Z,23.8
2022-09-10T13:37:07.000Z,23.8
2022-09-10T13:38:17.000Z,23.8
2022-09-10T13:39:26.000Z,23.8
2022-09-10T13:40:36.000Z,23.8
2022-09-10T13:41:45.000Z,23.8
2022-09-10T13:42:55.000Z,23.8
2022-09-10T13:44:06.000Z,23.8
2022-09-10T13:45:16.000Z,23.8
2022-09-10T13:46:26.000Z,23.8
2022-09-10T13:47:36.000Z,23.8
2022-09-10T13:48:46.000Z,23.8
2022-09-10T13:49:56.000Z,23.8
2022-09-10T13:51:06.000Z,23.8
2022-09-10T13:52:16.000Z,23.8
2022-09-10T13:53:27.000Z,23.8
2022-09-10T13:54:37.000Z,23.8
2022-09-10T13:55:47.000Z,23.8
2022-09-10T13:56:57.000Z,23.8
2022-09-10T13:58:06.000Z,23.8
2022-09-10T13:59:16.000Z,23.8
2022-09-10T14:00:26.000Z,23.8
2022-09-10T14:01:36.000Z,23.8
2022-09-10T14:02:46.000Z,23.8
2022-09-10T14:03:56.000Z,23.8
2022-09-10T14:05:05.000Z,23.8
2022-09-10T14:06:15.000Z,23.8
2022-09-10T14:07:25.000Z,23.8
2022-09-10T14:08:34.000Z,23.8
2022-09-10T14:09:43.000Z,23.8
2022-09-10T14:10:53.000Z,23.8
2022-09-10T14:12:03.000Z,23.8
2022-09-10T14:13:14.000Z,23.8
2022-09-10T14:14:23.000Z,23.8
2022-09-10T14:15:33.000Z,23.8
2022-09-10T14:16:43.000Z,23.8
2022-09-10T14:17:53.000Z,23.8
2022-09-10T14:19:03.000Z,23.8
2022-09-10T14:20:13.000Z,23.8
2022-09-10T14:21:23.000Z,23.8
2022-09-10T14:22:34.000Z,23.8
2022-09-10T14:23:44.000Z,23.8
2022-09-10T14:24:54.000Z,23.8
2022-09-10T14:26:04.000Z,23.8
2022-09-10T14:27:14.000Z,23.8
2022-09-10T14:28:24.000Z,23.8
2022-09-10T14:29:33.000Z,23.8
2022-09-10T14:30:43.000Z,23.8
2022-09-10T14:31:53.000Z,23.8
2022-09-10T14:33:03.000Z,23.8
2022-09-10T14:34:12.000Z,23.8
2022-09-10T14:35:22.000Z,23.8
2022-09-10T14:36:31.000Z,23.8
2022-09-10T14:37:40.000Z,23.8
2022-09-10T14:38:50.000Z,23.8
2022-09-10T14:40:00.000Z,23.8
2022-09-10T14:41:10.000Z,23.8
2022-09-10T14:42:21.000Z,23.8
2022-09-10T14:43:31.000Z,23.8
2022-09-10T14:44:41.000Z,23.8
2022-09-10T14:45:51.000Z,23.8
2022-09-10T14:47:01.000Z,23.8
2022-09-10T14:48:11.000Z,23.8
2022-09-10T14:49:21.000Z,23.8
2022-09-10T14:50:31.000Z,23.8
2022-09-10T14:51:42.000Z,23.8
2022-09-10T14:52:51.000Z,23.8
2022-09-10T14:54:01.000Z,23.8
2022-09-10T14:55:11.000Z,23.8
2022-09-10T14:56:21.000Z,23.8
2022-09-10T14:57:31.000Z,23.8
2022-09-10T14:58:41.000Z,23.8
2022-09-10T14:59:51.000Z,23.8
2022-09-10T15:01:01.000Z,23.8
2022-09-10T15:02:10.000Z,23.8
2022-09-10T15:03:20.000Z,23.8
2022-09-10T15:04:30.000Z,23.8
2022-09-10T15:05:40.000Z,23.8
2022-09-10T15:06:50.000Z,23.8
2022-09-10T15:08:00.000Z,23.8
2022-09-10T15:09:10.000Z,23.8
2022-09-10T15:10:20.000Z,23.8
2022-09-10T15:11:31.000Z,23.8
2022-09-10T15:12:41.000Z,23.8
2022-09-10T15:13:51.000Z,23.8
2022-09-10T15:15:01.000Z,23.8
2022-09-10T15:16:11.000Z,23.8
2022-09-10T15:17:20.000Z,23.8
2022-09-10T15:18:30.000Z,23.8
2022-09-10T15:19:40.000Z,23.8
2022-09-10T15:20:51.000Z,23.8
2022-09-10T15:22:01.000Z,23.8
2022-09-10T15:23:11.000Z,23.8
2022-09-10T15:24:21.000Z,23.9
2022-09-10T15:25:30.000Z,23.9
2022-09-10T15:26:39.000Z,23.9
2022-09-10T15:27:48.000Z,23.9
2022-09-10T15:28:57.000Z,23.9
2022-09-10T15:31:18.000Z,24
2022-09-10T15:32:28.000Z,24
2022-09-10T15:33:37.000Z,24
2022-09-10T15:34:46.000Z,24
2022-09-10T15:35:56.000Z,24.1
2022-09-10T15:37:06.000Z,24.1
2022-09-10T15:38:16.000Z,24.1
2022-09-10T15:39:27.000Z,24.1
2022-09-10T15:40:37.000Z,24.1
2022-09-10T15:41:47.000Z,24.1
2022-09-10T15:42:57.000Z,24.1
2022-09-10T15:44:07.000Z,24.1
2022-09-10T15:45:17.000Z,24.1
2022-09-10T15:46:27.000Z,24.1
2022-09-10T15:47:37.000Z,24.1
2022-09-10T15:48:47.000Z,24.1
2022-09-10T15:49:57.000Z,24.1
2022-09-10T15:51:07.000Z,24
2022-09-10T15:52:17.000Z,24.1
2022-09-10T15:53:27.000Z,24
2022-09-10T15:54:37.000Z,24
2022-09-10T15:55:47.000Z,24
2022-09-10T15:56:57.000Z,24
2022-09-10T15:58:06.000Z,24
2022-09-10T15:59:16.000Z,24
2022-09-10T16:00:26.000Z,24